Time;durP1;ratioP1;P1;durP2;ratioP2;P2;SDS_P1;SDS_P2;PMS_P1;PMS_P2;Temp;Humidity;BMP_temperature;BMP_pressure;BME280_temperature;BME280_humidity;BME280_pressure;Samples;Min_cycle;Max_cycle;Signal;HPM_P1;HPM_P2
2022/12/17 13:09:24;;;;;;;4.43;1.87;;;11.40;88.80;;;;;;10929867;32;20042;-76
2022/12/17 13:15:36;;;;;;;2.47;1.73;;;11.40;88.70;;;;;;10779262;33;20036;-76
2022/12/17 13:21:38;;;;;;;3.67;2.12;;;11.40;87.90;;;;;;10777326;33;20044;-76
2022/12/17 13:27:41;;;;;;;2.22;1.83;;;11.50;88.20;;;;;;10791048;33;20032;-76
2022/12/17 13:33:57;;;;;;;3.30;2.25;;;11.70;88.20;;;;;;10788458;33;20391;-76
2022/12/17 13:40:29;;;;;;;3.95;2.33;;;11.80;88.50;;;;;;10790956;33;20050;-76
2022/12/17 13:46:41;;;;;;;5.78;2.90;;;11.80;89.00;;;;;;10790557;33;20024;-76
2022/12/17 13:52:44;;;;;;;3.10;2.42;;;11.90;89.20;;;;;;10917823;32;20027;-74
2022/12/17 13:58:51;;;;;;;3.50;2.65;;;11.90;89.00;;;;;;10942268;32;20423;-76
2022/12/17 14:04:55;;;;;;;4.43;2.90;;;11.80;89.30;;;;;;10927982;32;20035;-76
2022/12/17 14:17:22;;;;;;;2.75;1.65;;;11.40;89.60;;;;;;10941885;32;20431;-75
2022/12/17 14:23:32;;;;;;;6.72;3.42;;;11.20;90.00;;;;;;10937649;32;20024;-76
2022/12/17 14:29:45;;;;;;;4.50;2.33;;;11.10;89.80;;;;;;10941649;32;20031;-76
2022/12/17 14:35:51;;;;;;;4.37;2.67;;;10.90;89.80;;;;;;10941439;32;20085;-76
2022/12/17 14:42:24;;;;;;;4.87;2.67;;;10.80;89.60;;;;;;10941393;32;20019;-75
2022/12/17 14:48:59;;;;;;;4.47;2.35;;;10.80;89.60;;;;;;10940489;32;20066;-74
2022/12/17 14:54:51;;;;;;;7.10;3.85;;;10.70;89.50;;;;;;10941210;32;20038;-74
2022/12/17 15:01:05;;;;;;;3.55;2.33;;;10.70;89.40;;;;;;10941108;32;20019;-73
2022/12/17 15:07:11;;;;;;;2.62;1.73;;;10.70;89.20;;;;;;10940842;32;20058;-73
2022/12/17 15:13:14;;;;;;;3.25;1.65;;;10.60;89.20;;;;;;10944734;32;20023;-73
2022/12/17 15:19:16;;;;;;;3.15;2.10;;;10.60;89.30;;;;;;10947238;32;20019;-73
2022/12/17 15:25:19;;;;;;;3.05;1.95;;;10.50;89.30;;;;;;10937486;32;20031;-74
2022/12/17 15:31:21;;;;;;;3.37;1.75;;;10.50;89.30;;;;;;10908713;32;20019;-74
2022/12/17 15:37:26;;;;;;;5.00;2.50;;;10.40;89.40;;;;;;10913487;32;20035;-72
2022/12/17 15:43:29;;;;;;;3.80;2.62;;;10.30;89.20;;;;;;10946465;32;20470;-74
2022/12/17 15:49:32;;;;;;;1.90;1.58;;;10.30;89.20;;;;;;10941950;32;20054;-74
2022/12/17 15:55:35;;;;;;;3.40;2.33;;;10.20;89.10;;;;;;10946151;32;20042;-74
2022/12/17 16:01:37;;;;;;;5.40;2.72;;;10.20;89.00;;;;;;10945585;32;20038;-74
2022/12/17 16:07:39;;;;;;;4.10;2.50;;;10.10;88.90;;;;;;10945620;32;20057;-73
2022/12/17 16:13:42;;;;;;;3.22;1.58;;;10.00;88.80;;;;;;10942453;32;20054;-73
2022/12/17 16:19:44;;;;;;;3.15;2.40;;;9.90;88.80;;;;;;10945599;32;20041;-73
2022/12/17 16:26:01;;;;;;;3.92;2.28;;;9.80;88.80;;;;;;10899222;27;20050;-74
2022/12/17 16:32:50;;;;;;;3.65;2.30;;;9.80;88.70;;;;;;10894354;32;20337;-74
2022/12/17 16:38:53;;;;;;;3.12;2.22;;;9.80;88.70;;;;;;10892389;32;20038;-75
2022/12/17 16:44:55;;;;;;;3.55;2.28;;;9.70;88.60;;;;;;10893695;32;20045;-75
2022/12/17 16:50:57;;;;;;;5.68;3.12;;;9.70;88.60;;;;;;10892514;32;20365;-75
2022/12/17 16:57:02;;;;;;;5.05;3.05;;;9.70;88.60;;;;;;10904481;32;20053;-75
2022/12/17 17:03:06;;;;;;;4.32;2.75;;;9.70;88.50;;;;;;10906196;32;20050;-75
2022/12/17 17:09:08;;;;;;;5.43;3.40;;;9.60;88.60;;;;;;10906123;32;20055;-74
2022/12/17 17:15:10;;;;;;;3.67;2.33;;;9.60;88.50;;;;;;10905752;32;20012;-76
2022/12/17 17:21:17;;;;;;;3.95;2.37;;;9.50;88.70;;;;;;10904792;32;20019;-76
2022/12/17 17:27:19;;;;;;;3.22;2.53;;;9.50;88.70;;;;;;10912533;32;20070;-76
2022/12/17 17:33:22;;;;;;;4.97;3.40;;;9.40;88.70;;;;;;10917668;32;20019;-76
2022/12/17 17:39:24;;;;;;;4.37;3.22;;;9.40;88.80;;;;;;10901803;32;20042;-76
2022/12/17 17:45:26;;;;;;;5.68;3.35;;;9.40;88.70;;;;;;10890563;32;20441;-76
2022/12/17 17:51:31;;;;;;;5.65;3.33;;;9.30;88.60;;;;;;10890754;32;20067;-76
2022/12/17 17:57:33;;;;;;;5.37;3.35;;;9.30;88.60;;;;;;10900674;32;20020;-76
2022/12/17 18:03:36;;;;;;;4.37;3.05;;;9.30;88.70;;;;;;10903570;32;20043;-76
2022/12/17 18:09:38;;;;;;;3.67;2.45;;;9.30;88.70;;;;;;10890244;32;20027;-75
2022/12/17 18:15:40;;;;;;;6.87;3.28;;;9.30;88.70;;;;;;10890831;32;20440;-75
2022/12/17 18:21:43;;;;;;;3.10;2.25;;;9.20;88.70;;;;;;10904078;32;20342;-76
2022/12/17 18:27:45;;;;;;;4.68;2.85;;;9.20;88.70;;;;;;10890227;32;20405;-76
2022/12/17 18:33:52;;;;;;;4.20;2.60;;;9.10;88.70;;;;;;10902415;32;20323;-75
2022/12/17 18:39:55;;;;;;;4.25;2.47;;;9.10;88.70;;;;;;10903661;32;20038;-76
2022/12/17 18:46:02;;;;;;;5.68;3.53;;;9.10;88.70;;;;;;10905399;32;20042;-76
2022/12/17 18:52:04;;;;;;;3.80;2.33;;;9.10;88.50;;;;;;10908474;32;20049;-76
2022/12/17 18:58:08;;;;;;;4.95;3.28;;;9.00;88.50;;;;;;10910091;32;20003;-76
2022/12/17 19:04:13;;;;;;;4.12;2.55;;;9.00;88.50;;;;;;10910458;32;20011;-76
2022/12/17 19:10:15;;;;;;;5.18;3.45;;;8.90;88.50;;;;;;10904837;32;20034;-76
2022/12/17 19:16:23;;;;;;;4.78;3.28;;;8.90;88.60;;;;;;10859211;32;20296;-75
2022/12/17 19:22:25;;;;;;;4.53;3.30;;;8.90;88.60;;;;;;10893868;32;20028;-75
2022/12/17 19:28:27;;;;;;;7.28;4.53;;;8.90;88.40;;;;;;10909734;32;20338;-76
2022/12/17 19:34:31;;;;;;;5.50;3.95;;;8.80;88.30;;;;;;10909721;32;20031;-75
2022/12/17 19:40:34;;;;;;;7.00;4.43;;;8.80;88.40;;;;;;10908994;32;20019;-75
2022/12/17 19:46:36;;;;;;;9.68;5.30;;;8.70;88.40;;;;;;10908779;32;20045;-75
2022/12/17 19:52:38;;;;;;;6.25;3.12;;;8.70;88.30;;;;;;10908973;32;20393;-75
2022/12/17 19:58:42;;;;;;;4.60;2.95;;;8.70;88.30;;;;;;10894294;32;20455;-76
2022/12/17 20:04:44;;;;;;;7.47;4.18;;;8.70;88.20;;;;;;10908554;32;20042;-76
2022/12/17 20:10:46;;;;;;;7.80;5.37;;;8.70;88.20;;;;;;10908277;32;20016;-76
2022/12/17 20:16:56;;;;;;;5.87;4.53;;;8.60;88.10;;;;;;10908039;32;20038;-76
2022/12/17 20:22:59;;;;;;;6.32;3.72;;;8.60;87.80;;;;;;10903836;32;20043;-76
2022/12/17 20:29:01;;;;;;;5.93;4.35;;;8.50;87.90;;;;;;10894325;32;20046;-76
2022/12/17 20:35:04;;;;;;;5.90;3.62;;;8.40;88.00;;;;;;10907506;32;20023;-76
2022/12/17 20:41:17;;;;;;;4.20;2.42;;;8.40;88.00;;;;;;10907414;32;20389;-76
2022/12/17 20:47:19;;;;;;;4.53;2.70;;;8.40;88.20;;;;;;10907041;32;20047;-76
2022/12/17 20:53:21;;;;;;;5.82;4.03;;;8.30;88.10;;;;;;10906871;32;20015;-75
2022/12/17 20:59:23;;;;;;;7.53;4.40;;;8.10;87.80;;;;;;10906642;32;20337;-75
2022/12/17 21:05:27;;;;;;;6.12;3.65;;;8.10;88.00;;;;;;10901564;32;20031;-75
2022/12/17 21:11:31;;;;;;;5.05;3.30;;;8.10;88.00;;;;;;10905542;32;20051;-75
2022/12/17 21:17:33;;;;;;;7.18;3.92;;;8.10;87.90;;;;;;10892328;32;20057;-75
2022/12/17 21:23:37;;;;;;;5.57;3.10;;;8.10;88.00;;;;;;10905517;32;20023;-75
2022/12/17 21:29:39;;;;;;;7.05;4.75;;;8.20;88.10;;;;;;10905513;32;20081;-76
2022/12/17 21:35:41;;;;;;;6.80;4.45;;;8.10;87.80;;;;;;10905375;32;20020;-75
2022/12/17 21:43:00;;;;;;;8.40;4.97;;;7.90;87.60;;;;;;10905182;32;20061;-75
2022/12/17 21:48:10;;;;;;;5.40;3.85;;;7.70;87.60;;;;;;10913575;32;20112;-76
2022/12/17 21:54:12;;;;;;;6.70;4.80;;;7.70;87.50;;;;;;10904845;32;20015;-76
2022/12/17 22:00:15;;;;;;;6.60;4.20;;;7.60;87.50;;;;;;10904585;32;20016;-76
2022/12/17 22:06:19;;;;;;;4.85;3.47;;;7.60;87.90;;;;;;10904508;32;20019;-76
2022/12/17 22:18:42;;;;;;;6.37;4.62;;;7.70;88.00;;;;;;10904152;32;20271;-76
2022/12/17 22:24:45;;;;;;;6.10;3.87;;;7.60;87.50;;;;;;10890805;32;20042;-76
2022/12/17 22:37:07;;;;;;;6.82;4.05;;;7.70;87.90;;;;;;10904011;32;20019;-76
2022/12/17 22:43:31;;;;;;;5.03;2.90;;;7.70;88.00;;;;;;10903894;32;20369;-76
2022/12/17 22:49:33;;;;;;;5.15;3.60;;;7.70;88.00;;;;;;10903549;32;20317;-76
2022/12/17 22:55:36;;;;;;;5.32;3.70;;;7.70;88.00;;;;;;10903463;32;20015;-76
2022/12/17 23:01:38;;;;;;;8.15;5.72;;;7.70;87.70;;;;;;10903301;32;20012;-76
2022/12/17 23:07:40;;;;;;;3.85;2.53;;;7.60;87.60;;;;;;10903375;32;20311;-76
2022/12/17 23:13:42;;;;;;;4.22;2.83;;;7.50;87.70;;;;;;10903311;32;20050;-75
2022/12/17 23:19:45;;;;;;;4.90;3.28;;;7.60;87.80;;;;;;10899199;32;20012;-75
2022/12/17 23:25:47;;;;;;;6.75;3.80;;;7.50;87.60;;;;;;10903036;32;20019;-75
2022/12/17 23:31:49;;;;;;;7.05;4.62;;;7.60;87.90;;;;;;10904541;32;20078;-75
2022/12/17 23:37:52;;;;;;;6.40;3.65;;;7.60;87.90;;;;;;10909672;32;20023;-75
2022/12/17 23:43:55;;;;;;;7.60;5.15;;;7.50;88.00;;;;;;10909396;32;20042;-75
2022/12/17 23:49:57;;;;;;;4.70;3.28;;;7.60;88.00;;;;;;10908892;32;20015;-75
2022/12/17 23:56:10;;;;;;;5.72;3.35;;;7.60;88.00;;;;;;10918382;32;20050;-75
